createdAt,value
2023-06-29T00:02:27.557Z,7.83
2023-06-29T00:04:58.885Z,9.67
2023-06-29T00:07:26.371Z,8.03
2023-06-29T00:09:54.822Z,8.13
2023-06-29T00:12:22.057Z,8.27
2023-06-29T00:14:49.269Z,9.10
2023-06-29T00:17:17.612Z,8.87
2023-06-29T00:19:48.765Z,8.50
2023-06-29T00:22:16.257Z,9.37
2023-06-29T00:24:43.554Z,9.80
2023-06-29T00:27:14.794Z,8.07
2023-06-29T00:29:45.185Z,9.00
2023-06-29T00:32:12.513Z,9.23
2023-06-29T00:34:39.656Z,9.70
2023-06-29T00:37:07.088Z,8.90
2023-06-29T00:39:35.213Z,10.17
2023-06-29T00:42:03.556Z,9.57
2023-06-29T00:44:30.774Z,10.03
2023-06-29T00:46:58.144Z,8.97
2023-06-29T00:49:25.411Z,9.20
2023-06-29T00:51:54.444Z,9.67
2023-06-29T00:54:22.145Z,10.47
2023-06-29T00:56:49.460Z,10.77
2023-06-29T00:59:16.670Z,12.73
2023-06-29T01:01:45.030Z,8.87
2023-06-29T01:04:18.504Z,9.67
2023-06-29T01:07:09.164Z,8.83
2023-06-29T01:09:36.891Z,7.87
2023-06-29T01:12:04.835Z,10.53
2023-06-29T01:14:33.804Z,10.37
2023-06-29T01:17:01.726Z,11.97
2023-06-29T01:19:30.657Z,9.30
2023-06-29T01:22:05.183Z,9.10
2023-06-29T01:24:39.846Z,8.97
2023-06-29T01:27:10.771Z,10.20
2023-06-29T01:29:38.093Z,7.87
2023-06-29T01:32:08.279Z,9.13
2023-06-29T01:34:39.343Z,7.73
2023-06-29T01:37:20.642Z,9.27
2023-06-29T01:39:57.147Z,11.53
2023-06-29T01:42:25.481Z,11.60
2023-06-29T01:44:54.556Z,8.00
2023-06-29T01:47:23.004Z,8.17
2023-06-29T01:49:50.325Z,8.57
2023-06-29T01:52:17.811Z,9.33
2023-06-29T01:54:45.868Z,9.17
2023-06-29T01:57:13.891Z,13.83
2023-06-29T01:59:41.177Z,9.73
2023-06-29T02:02:08.475Z,10.13
2023-06-29T02:04:35.719Z,8.17
2023-06-29T02:07:03.054Z,8.60
2023-06-29T02:09:30.280Z,11.53
2023-06-29T02:11:57.474Z,10.50
2023-06-29T02:14:24.630Z,13.00
2023-06-29T02:16:52.771Z,10.03
2023-06-29T02:19:19.966Z,9.53
2023-06-29T02:21:47.136Z,7.33
2023-06-29T02:24:14.357Z,9.77
2023-06-29T02:26:41.524Z,9.40
2023-06-29T02:29:08.811Z,11.70
2023-06-29T02:31:36.039Z,8.67
2023-06-29T02:34:03.231Z,8.90
2023-06-29T02:36:31.383Z,11.17
2023-06-29T02:38:58.553Z,9.57
2023-06-29T02:41:25.722Z,6.53
2023-06-29T02:43:54.186Z,10.23
2023-06-29T02:46:21.521Z,9.57
2023-06-29T02:48:48.739Z,9.07
2023-06-29T02:51:16.023Z,10.47
2023-06-29T02:53:43.159Z,9.33
2023-06-29T02:56:10.339Z,8.03
2023-06-29T02:58:37.521Z,7.97
2023-06-29T03:01:04.752Z,8.13
2023-06-29T03:03:31.976Z,8.37
2023-06-29T03:05:59.140Z,7.27
2023-06-29T03:08:26.306Z,9.87
2023-06-29T03:10:53.628Z,7.63
2023-06-29T03:13:20.850Z,9.93
2023-06-29T03:15:48.081Z,8.47
2023-06-29T03:18:15.273Z,7.27
2023-06-29T03:20:42.509Z,9.37
2023-06-29T03:23:09.680Z,8.90
2023-06-29T03:25:36.880Z,9.83
2023-06-29T03:28:04.075Z,7.67
2023-06-29T03:30:31.226Z,10.37
2023-06-29T03:33:00.870Z,9.67
2023-06-29T03:35:28.126Z,8.73
2023-06-29T03:37:55.349Z,8.93
2023-06-29T03:40:22.596Z,9.87
2023-06-29T03:42:50.880Z,8.67
2023-06-29T03:45:18.046Z,10.03
2023-06-29T03:47:45.365Z,10.00
2023-06-29T03:50:12.689Z,13.60
2023-06-29T03:52:39.861Z,9.27
2023-06-29T03:55:07.342Z,8.30
2023-06-29T03:57:34.610Z,8.73
2023-06-29T04:00:01.805Z,10.23
2023-06-29T04:02:29.099Z,9.60
2023-06-29T04:04:56.400Z,9.27
2023-06-29T04:07:23.636Z,9.90
2023-06-29T04:09:50.831Z,9.43
2023-06-29T04:12:17.992Z,9.90
2023-06-29T04:14:47.079Z,9.63
2023-06-29T04:17:14.363Z,11.93
2023-06-29T04:19:41.593Z,9.63
2023-06-29T04:22:08.861Z,8.43
2023-06-29T04:24:36.054Z,10.17
2023-06-29T04:27:03.480Z,10.77
2023-06-29T04:29:30.695Z,11.53
2023-06-29T04:31:58.398Z,11.60
2023-06-29T04:34:25.566Z,9.77
2023-06-29T04:36:57.463Z,10.27
2023-06-29T04:39:24.684Z,10.90
2023-06-29T04:42:02.217Z,9.80
2023-06-29T04:44:35.848Z,8.87
2023-06-29T04:47:03.920Z,10.80
2023-06-29T04:49:38.544Z,8.70
2023-06-29T04:52:06.377Z,8.63
2023-06-29T04:54:33.702Z,9.13
2023-06-29T04:57:00.923Z,9.93
2023-06-29T04:59:32.111Z,12.23
2023-06-29T05:01:59.372Z,9.90
2023-06-29T05:04:26.601Z,8.50
2023-06-29T05:06:53.802Z,8.63
2023-06-29T05:09:20.965Z,8.50
2023-06-29T05:11:48.189Z,12.27
2023-06-29T05:14:15.342Z,8.73
2023-06-29T05:16:42.503Z,9.83
2023-06-29T05:19:09.748Z,10.40
2023-06-29T05:21:36.895Z,9.83
2023-06-29T05:24:04.144Z,10.40
2023-06-29T05:26:31.326Z,7.83
2023-06-29T05:29:05.804Z,10.90
2023-06-29T05:31:33.922Z,10.87
2023-06-29T05:34:01.201Z,9.77
2023-06-29T05:36:28.438Z,9.40
2023-06-29T05:38:55.665Z,10.60
2023-06-29T05:41:23.007Z,9.17
2023-06-29T05:43:50.182Z,11.13
2023-06-29T05:46:17.414Z,11.97
2023-06-29T05:48:44.636Z,10.37
2023-06-29T05:51:11.799Z,11.43
2023-06-29T05:53:38.979Z,10.53
2023-06-29T05:56:06.181Z,9.97
2023-06-29T05:58:33.340Z,11.10
2023-06-29T06:01:00.878Z,10.27
2023-06-29T06:03:28.410Z,9.20
2023-06-29T06:05:55.639Z,9.20
2023-06-29T06:08:22.816Z,10.43
2023-06-29T06:10:50.054Z,10.40
2023-06-29T06:13:17.220Z,10.23
2023-06-29T06:15:44.467Z,9.67
2023-06-29T06:18:11.709Z,11.03
2023-06-29T06:20:39.004Z,9.13
2023-06-29T06:23:06.250Z,9.57
2023-06-29T06:25:33.445Z,8.77
2023-06-29T06:28:00.722Z,8.83
2023-06-29T06:30:27.929Z,10.93
2023-06-29T06:32:55.455Z,8.60
2023-06-29T06:35:22.834Z,8.77
2023-06-29T06:37:50.066Z,9.47
2023-06-29T06:40:17.258Z,9.20
2023-06-29T06:42:44.483Z,8.43
2023-06-29T06:45:12.244Z,8.50
2023-06-29T06:47:39.580Z,8.27
2023-06-29T06:50:07.470Z,8.60
2023-06-29T06:52:34.637Z,8.97
2023-06-29T06:55:02.427Z,9.40
2023-06-29T06:57:29.682Z,8.10
2023-06-29T06:59:56.984Z,9.00
2023-06-29T07:02:24.337Z,8.97
2023-06-29T07:04:52.168Z,9.43
2023-06-29T07:07:19.397Z,10.87
2023-06-29T07:09:46.697Z,9.30
2023-06-29T07:12:13.917Z,9.37
2023-06-29T07:14:41.220Z,10.70
2023-06-29T07:17:08.458Z,10.00
2023-06-29T07:24:36.029Z,11.67
2023-06-29T07:27:03.319Z,12.20
2023-06-29T07:29:31.645Z,9.57
2023-06-29T07:31:58.912Z,9.80
2023-06-29T07:34:26.154Z,10.07
2023-06-29T07:36:53.785Z,10.30
2023-06-29T07:39:21.030Z,10.63
2023-06-29T07:41:49.546Z,10.23
2023-06-29T07:44:16.773Z,10.10
2023-06-29T07:46:44.029Z,9.33
2023-06-29T07:49:11.349Z,9.10
2023-06-29T07:51:38.651Z,9.33
2023-06-29T07:54:07.555Z,9.93
2023-06-29T07:59:05.168Z,8.93
2023-06-29T08:01:32.517Z,8.23
2023-06-29T08:04:03.495Z,9.07
2023-06-29T08:09:05.265Z,8.63
2023-06-29T08:11:32.633Z,7.30
2023-06-29T08:13:59.878Z,7.67
2023-06-29T08:16:27.244Z,9.07
2023-06-29T08:18:54.610Z,7.63
2023-06-29T08:21:21.831Z,8.47
2023-06-29T08:23:50.960Z,7.40
2023-06-29T08:26:18.474Z,6.97
2023-06-29T08:28:45.749Z,7.90
2023-06-29T08:31:14.021Z,7.43
2023-06-29T08:33:41.369Z,7.17
2023-06-29T08:36:08.721Z,7.93
2023-06-29T08:38:35.957Z,8.20
2023-06-29T08:41:05.789Z,7.40
2023-06-29T08:43:33.259Z,7.53
2023-06-29T08:46:00.561Z,7.67
2023-06-29T08:48:27.934Z,7.40
2023-06-29T08:50:58.669Z,7.83
2023-06-29T08:53:26.739Z,8.87
2023-06-29T08:55:54.823Z,7.43
2023-06-29T08:58:25.352Z,7.47
2023-06-29T09:00:54.494Z,8.07
2023-06-29T09:03:23.600Z,8.20
2023-06-29T09:05:51.019Z,8.70
2023-06-29T09:08:19.750Z,9.93
2023-06-29T09:10:47.837Z,9.67
2023-06-29T09:13:15.245Z,9.23
2023-06-29T09:15:42.810Z,8.47
2023-06-29T09:18:10.300Z,9.23
2023-06-29T09:20:37.757Z,9.10
2023-06-29T09:23:05.642Z,8.97
2023-06-29T09:25:35.753Z,10.57
2023-06-29T09:28:06.758Z,10.87
2023-06-29T09:30:40.795Z,10.30
2023-06-29T09:33:12.220Z,10.03
2023-06-29T09:35:45.205Z,10.53
2023-06-29T09:38:12.574Z,9.70
2023-06-29T09:40:48.916Z,10.30
2023-06-29T09:43:17.272Z,9.83
2023-06-29T09:45:44.627Z,9.63
2023-06-29T09:50:50.562Z,9.00
2023-06-29T09:53:19.737Z,9.37
2023-06-29T09:55:48.837Z,8.53
2023-06-29T09:58:17.169Z,9.00
2023-06-29T10:00:46.647Z,8.50
2023-06-29T10:03:14.521Z,9.10
2023-06-29T10:05:41.787Z,7.47
2023-06-29T10:08:10.147Z,9.30
2023-06-29T10:10:38.445Z,8.10
2023-06-29T10:13:06.959Z,7.83
2023-06-29T10:15:37.230Z,7.80
2023-06-29T10:18:12.124Z,9.27
2023-06-29T10:20:41.495Z,8.00
2023-06-29T10:23:08.988Z,7.90
2023-06-29T10:25:38.504Z,7.20
2023-06-29T10:28:06.064Z,10.33
2023-06-29T10:30:45.485Z,9.17
2023-06-29T10:33:13.030Z,9.47
2023-06-29T10:35:41.885Z,7.90
2023-06-29T10:38:13.524Z,7.67
2023-06-29T10:40:50.346Z,7.40
2023-06-29T10:43:18.988Z,8.73
2023-06-29T10:45:46.210Z,8.30
2023-06-29T10:48:25.818Z,8.57
2023-06-29T10:51:01.867Z,8.07
2023-06-29T10:53:31.197Z,8.25
2023-06-29T10:55:58.575Z,7.55
2023-06-29T10:58:26.688Z,6.93
2023-06-29T11:00:55.384Z,8.02
2023-06-29T11:03:23.382Z,8.30
2023-06-29T11:05:54.622Z,6.30
2023-06-29T11:08:25.412Z,8.05
2023-06-29T11:10:53.423Z,7.70
2023-06-29T11:13:21.300Z,7.18
2023-06-29T11:15:55.578Z,6.65
2023-06-29T11:18:23.856Z,5.80
2023-06-29T11:20:51.458Z,6.90
2023-06-29T11:23:18.969Z,7.07
2023-06-29T11:25:46.282Z,7.05
2023-06-29T11:28:16.198Z,7.03
2023-06-29T11:30:43.624Z,7.10
2023-06-29T11:33:28.624Z,7.60
2023-06-29T11:36:02.377Z,7.50
2023-06-29T11:38:29.869Z,7.47
2023-06-29T11:41:04.028Z,7.75
2023-06-29T11:43:32.048Z,7.22
2023-06-29T11:45:59.903Z,7.07
2023-06-29T11:48:30.977Z,6.45
2023-06-29T11:51:02.078Z,6.53
2023-06-29T11:53:30.125Z,6.63
2023-06-29T11:55:58.091Z,6.38
2023-06-29T11:58:32.773Z,6.55
2023-06-29T12:01:00.012Z,6.20
2023-06-29T12:03:28.117Z,6.80
2023-06-29T12:05:59.809Z,6.15
2023-06-29T12:08:27.439Z,6.60
2023-06-29T12:10:54.678Z,6.53
2023-06-29T12:13:22.933Z,6.88
2023-06-29T12:18:24.807Z,6.15
2023-06-29T12:20:52.197Z,6.43
2023-06-29T12:23:19.931Z,6.15
2023-06-29T12:25:53.271Z,6.68
2023-06-29T12:28:20.988Z,5.88
2023-06-29T12:30:48.444Z,6.40
2023-06-29T12:33:16.090Z,6.43
2023-06-29T12:35:43.816Z,6.80
2023-06-29T12:38:12.733Z,7.20
2023-06-29T12:40:40.178Z,6.25
2023-06-29T12:43:07.400Z,6.93
2023-06-29T12:45:36.151Z,6.50
2023-06-29T12:48:04.865Z,7.00
2023-06-29T12:50:32.402Z,7.00
2023-06-29T12:52:59.725Z,7.00
2023-06-29T12:55:27.011Z,6.80
2023-06-29T12:57:54.241Z,7.65
2023-06-29T13:00:22.825Z,7.25
2023-06-29T13:02:51.080Z,6.82
2023-06-29T13:05:18.402Z,7.82
2023-06-29T13:07:45.895Z,6.80
2023-06-29T13:10:13.278Z,7.55
2023-06-29T13:12:42.068Z,8.10
2023-06-29T13:15:09.593Z,7.15
2023-06-29T13:17:36.817Z,7.45
2023-06-29T13:20:04.312Z,7.88
2023-06-29T13:22:32.557Z,7.65
2023-06-29T13:25:02.241Z,7.50
2023-06-29T13:27:29.407Z,7.97
2023-06-29T13:29:56.629Z,7.53
2023-06-29T13:32:24.012Z,7.65
2023-06-29T13:34:51.304Z,8.18
2023-06-29T13:37:18.758Z,8.85
2023-06-29T13:39:46.886Z,7.97
2023-06-29T13:42:16.944Z,8.82
2023-06-29T13:44:44.585Z,7.60
2023-06-29T13:47:12.803Z,8.02
2023-06-29T13:49:40.398Z,8.48
2023-06-29T13:52:08.101Z,8.43
2023-06-29T13:54:35.891Z,8.10
2023-06-29T13:57:03.372Z,7.55
2023-06-29T13:59:30.782Z,8.52
2023-06-29T14:01:58.041Z,8.20
2023-06-29T14:04:25.448Z,7.70
2023-06-29T14:06:53.311Z,8.10
2023-06-29T14:09:20.634Z,7.47
2023-06-29T14:11:47.840Z,7.55
2023-06-29T14:14:15.079Z,6.95
2023-06-29T14:16:43.992Z,7.55
2023-06-29T14:19:11.208Z,8.20
2023-06-29T14:21:38.548Z,7.90
2023-06-29T14:24:05.746Z,8.05
2023-06-29T14:26:32.935Z,6.40
2023-06-29T14:29:00.215Z,7.78
2023-06-29T14:31:27.552Z,6.82
2023-06-29T14:33:55.901Z,6.75
2023-06-29T14:36:23.246Z,7.53
2023-06-29T14:38:51.965Z,8.05
2023-06-29T14:41:20.947Z,7.28
2023-06-29T14:43:48.493Z,6.57
2023-06-29T14:46:15.693Z,6.97
2023-06-29T14:48:42.900Z,6.28
2023-06-29T14:51:10.613Z,6.97
2023-06-29T14:53:37.841Z,6.93
2023-06-29T14:56:06.035Z,7.22
2023-06-29T14:58:33.398Z,6.90
2023-06-29T15:01:00.763Z,7.20
2023-06-29T15:03:28.116Z,6.85
2023-06-29T15:05:55.420Z,7.25
2023-06-29T15:08:22.743Z,6.85
2023-06-29T15:10:49.920Z,6.93
2023-06-29T15:13:18.112Z,6.93
2023-06-29T15:15:46.140Z,6.07
2023-06-29T15:18:13.658Z,6.30
2023-06-29T15:20:40.880Z,6.53
2023-06-29T15:23:08.087Z,6.97
2023-06-29T15:25:37.020Z,6.97
2023-06-29T15:28:05.048Z,6.75
2023-06-29T15:30:38.621Z,8.32
2023-06-29T15:33:14.822Z,7.70
2023-06-29T15:35:42.021Z,7.47
2023-06-29T15:38:09.186Z,5.50
2023-06-29T15:40:36.804Z,6.22
2023-06-29T15:43:03.975Z,5.53
2023-06-29T15:45:31.156Z,5.20
2023-06-29T15:47:58.539Z,5.55
2023-06-29T15:50:25.788Z,5.20
2023-06-29T15:52:53.101Z,5.28
2023-06-29T15:55:20.417Z,4.75
2023-06-29T15:57:47.641Z,6.78
2023-06-29T16:00:15.044Z,5.47
2023-06-29T16:02:42.345Z,5.40
2023-06-29T16:05:09.857Z,5.97
2023-06-29T16:07:38.380Z,5.68
2023-06-29T16:10:06.142Z,5.88
2023-06-29T16:12:33.519Z,6.30
2023-06-29T16:15:01.925Z,5.57
2023-06-29T16:17:29.904Z,6.40
2023-06-29T16:19:57.380Z,6.63
2023-06-29T16:22:24.706Z,6.18
2023-06-29T16:24:51.886Z,5.95
2023-06-29T16:27:19.089Z,6.28
2023-06-29T16:29:46.475Z,6.22
2023-06-29T16:32:13.735Z,6.63
2023-06-29T16:34:41.118Z,6.35
2023-06-29T16:37:10.260Z,7.30
2023-06-29T16:39:37.732Z,6.97
2023-06-29T16:42:05.096Z,6.93
2023-06-29T16:44:32.377Z,6.78
2023-06-29T16:46:59.676Z,6.47
2023-06-29T16:49:27.274Z,6.43
2023-06-29T16:51:55.808Z,6.88
2023-06-29T16:54:23.231Z,5.90
2023-06-29T16:56:50.446Z,6.25
2023-06-29T16:59:17.640Z,6.40
2023-06-29T17:01:44.937Z,5.60
2023-06-29T17:04:12.251Z,6.45
2023-06-29T17:06:39.792Z,6.40
2023-06-29T17:09:06.976Z,7.20
2023-06-29T17:11:34.186Z,6.93
2023-06-29T17:14:02.060Z,7.00
2023-06-29T17:16:29.394Z,6.95
2023-06-29T17:18:56.680Z,8.45
2023-06-29T17:21:23.899Z,7.57
2023-06-29T17:23:54.026Z,7.57
2023-06-29T17:26:22.319Z,7.38
2023-06-29T17:28:49.551Z,8.20
2023-06-29T17:31:16.856Z,7.60
2023-06-29T17:33:54.237Z,6.90
2023-06-29T17:36:23.202Z,6.65
2023-06-29T17:38:50.468Z,8.20
2023-06-29T17:41:17.794Z,9.00
2023-06-29T17:43:44.971Z,8.15
2023-06-29T17:46:12.221Z,8.73
2023-06-29T17:48:39.473Z,8.27
2023-06-29T17:51:19.465Z,9.23
2023-06-29T17:53:47.336Z,9.15
2023-06-29T17:56:15.617Z,8.77
2023-06-29T17:58:44.485Z,9.38
2023-06-29T18:01:11.849Z,8.40
2023-06-29T18:03:40.037Z,7.93
2023-06-29T18:06:07.822Z,9.43
2023-06-29T18:08:35.021Z,9.93
2023-06-29T18:11:02.343Z,8.45
2023-06-29T18:13:29.512Z,9.23
2023-06-29T18:15:56.942Z,8.43
2023-06-29T18:18:24.185Z,8.50
2023-06-29T18:20:51.409Z,8.27
2023-06-29T18:23:18.593Z,8.20
2023-06-29T18:25:46.502Z,9.07
2023-06-29T18:28:14.048Z,9.15
2023-06-29T18:30:41.281Z,10.07
2023-06-29T18:33:08.543Z,8.70
2023-06-29T18:35:35.755Z,9.13
2023-06-29T18:38:03.036Z,8.35
2023-06-29T18:40:30.348Z,9.17
2023-06-29T18:42:59.234Z,8.13
2023-06-29T18:45:29.858Z,9.57
2023-06-29T18:47:57.694Z,8.57
2023-06-29T18:50:25.036Z,9.15
2023-06-29T18:52:52.354Z,8.63
2023-06-29T18:55:19.697Z,10.13
2023-06-29T18:57:46.916Z,8.88
2023-06-29T19:00:14.321Z,8.75
2023-06-29T19:02:44.447Z,9.00
2023-06-29T19:05:12.262Z,8.63
2023-06-29T19:07:39.558Z,9.90
2023-06-29T19:10:07.142Z,9.00
2023-06-29T19:12:34.312Z,9.07
2023-06-29T19:15:01.677Z,8.93
2023-06-29T19:17:29.236Z,8.70
2023-06-29T19:19:56.691Z,9.20
2023-06-29T19:22:23.890Z,9.10
2023-06-29T19:24:51.096Z,9.10
2023-06-29T19:27:18.287Z,9.20
2023-06-29T19:29:45.463Z,10.93
2023-06-29T19:32:12.748Z,14.60
2023-06-29T19:34:39.948Z,10.60
2023-06-29T19:37:07.278Z,11.40
2023-06-29T19:39:34.494Z,9.20
2023-06-29T19:42:03.375Z,9.63
2023-06-29T19:44:30.708Z,10.10
2023-06-29T19:46:57.941Z,9.23
2023-06-29T19:49:25.197Z,9.90
2023-06-29T19:51:58.704Z,10.40
2023-06-29T19:54:26.554Z,10.27
2023-06-29T19:56:53.963Z,9.63
2023-06-29T19:59:21.174Z,10.27
2023-06-29T20:01:48.418Z,9.87
2023-06-29T20:04:15.889Z,10.87
2023-06-29T20:06:43.245Z,9.73
2023-06-29T20:09:10.512Z,10.67
2023-06-29T20:11:37.884Z,10.33
2023-06-29T20:14:05.168Z,8.53
2023-06-29T20:16:32.484Z,9.97
2023-06-29T20:18:59.718Z,11.07
2023-06-29T20:21:27.126Z,11.87
2023-06-29T20:23:54.466Z,10.93
2023-06-29T20:26:21.699Z,10.17
2023-06-29T20:28:48.885Z,9.77
2023-06-29T20:31:16.109Z,10.33
2023-06-29T20:33:43.332Z,10.20
2023-06-29T20:36:10.498Z,10.67
2023-06-29T20:38:37.795Z,12.13
2023-06-29T20:41:04.980Z,11.80
2023-06-29T20:43:34.394Z,11.43
2023-06-29T20:46:01.983Z,13.13
2023-06-29T20:48:31.260Z,11.63
2023-06-29T20:51:15.481Z,12.57
2023-06-29T20:53:44.831Z,11.97
2023-06-29T20:56:12.047Z,12.17
2023-06-29T20:58:39.726Z,11.63
2023-06-29T21:01:07.234Z,12.83
2023-06-29T21:03:34.976Z,11.77
2023-06-29T21:06:02.521Z,11.40
2023-06-29T21:08:30.311Z,13.00
2023-06-29T21:10:57.619Z,12.23
2023-06-29T21:13:25.138Z,11.63
2023-06-29T21:15:52.503Z,13.63
2023-06-29T21:18:19.906Z,14.30
2023-06-29T21:20:47.088Z,14.70
2023-06-29T21:23:14.334Z,13.73
2023-06-29T21:25:41.647Z,16.13
2023-06-29T21:28:10.934Z,15.07
2023-06-29T21:30:39.132Z,15.47
2023-06-29T21:33:06.641Z,16.00
2023-06-29T21:35:34.916Z,17.73
2023-06-29T21:38:02.274Z,19.43
2023-06-29T21:40:29.437Z,18.20
2023-06-29T21:42:56.590Z,17.00
2023-06-29T21:45:28.038Z,17.17
2023-06-29T21:47:55.653Z,20.37
2023-06-29T21:50:23.064Z,17.17
2023-06-29T21:52:50.252Z,19.13
2023-06-29T21:55:17.479Z,21.27
2023-06-29T21:57:44.824Z,20.87
2023-06-29T22:00:13.589Z,19.63
2023-06-29T22:02:41.047Z,21.00
2023-06-29T22:05:08.385Z,21.03
2023-06-29T22:07:35.621Z,21.27
2023-06-29T22:10:03.659Z,18.80
2023-06-29T22:12:30.885Z,20.00
2023-06-29T22:14:58.826Z,18.40
2023-06-29T22:17:26.176Z,20.47
2023-06-29T22:20:11.992Z,19.67
2023-06-29T22:22:39.376Z,20.10
2023-06-29T22:25:07.239Z,18.93
2023-06-29T22:27:34.392Z,21.00
2023-06-29T22:30:01.592Z,19.63
2023-06-29T22:32:29.581Z,19.10
2023-06-29T22:34:56.764Z,19.03
2023-06-29T22:37:23.966Z,20.10
2023-06-29T22:39:51.115Z,20.10
2023-06-29T22:42:19.202Z,23.53
2023-06-29T22:44:46.416Z,21.30
2023-06-29T22:47:14.253Z,23.43
2023-06-29T22:49:43.471Z,22.37
2023-06-29T22:52:10.958Z,22.27
2023-06-29T22:54:38.226Z,25.53
2023-06-29T22:57:05.527Z,26.87
2023-06-29T22:59:32.792Z,26.73
2023-06-29T23:02:00.044Z,27.83
2023-06-29T23:04:27.269Z,30.27
2023-06-29T23:06:54.758Z,29.37
2023-06-29T23:09:22.312Z,31.03
2023-06-29T23:11:50.547Z,30.60
2023-06-29T23:14:18.634Z,30.10
2023-06-29T23:16:49.217Z,34.63
2023-06-29T23:19:16.498Z,34.50
2023-06-29T23:21:43.689Z,33.57
2023-06-29T23:24:15.133Z,37.77
2023-06-29T23:26:42.811Z,34.47
2023-06-29T23:29:10.577Z,34.03
2023-06-29T23:31:37.812Z,35.53
2023-06-29T23:34:05.076Z,37.83
2023-06-29T23:36:32.335Z,35.67
2023-06-29T23:38:59.738Z,40.70
2023-06-29T23:41:30.864Z,36.30
2023-06-29T23:44:09.093Z,35.57
2023-06-29T23:46:54.528Z,37.93
2023-06-29T23:49:21.834Z,34.20
2023-06-29T23:51:49.495Z,35.33
2023-06-29T23:54:16.961Z,34.13
2023-06-29T23:56:49.438Z,36.17
2023-06-29T23:59:16.635Z,32.10
